Thunder radar more information blitzortung!


Radar de pluja more information rain snow radar


Visita la nostra xarxa de llocs de meteo:

Template documentation
and downloads

And another site



No particular awareness of the weather is required.    There are no Weather-warnings

Pagina Historial Weather Underground text

Diari Resum Octubre 27, 2017 Unitats:  Imperial    Mètric   Tant
« Previous Dia
SegĂźent Dia »
Diari Setmana Mensual Anual Personalitzada
  Maxima: Minima: Media:
Temperatura: 76.8 °F 55.4 °F 66.4 °F
Punt de rosada: 60.3 °F 49.6 °F 56.3 °F
Humitat: 94 % 44 % 72 %
Wind Speed: 9.2 mph 0 mph 2.8 mph
RĂ fegues de vent: 9.2 mph - -
Vent:- - South
Pression baro: 30.4 in 30.2 in -
Precipitacions: 0 in    
Historical Graphs
 
 
Dades de taula per Octubre 27, 2017
Temps Temperatura Punt de rosada Pression baro Vent Wind Speed RĂ fegues de vent Humitat Rainfall Rate (Hourly)
00:00 58.6 °F 56.7 °F 30.3 in Calm     93 % 0 in
00:02 61.3 °F 57.7 °F 30.4 in SW 1.2 mph 1.2 mph 88 % 0 in
00:07 61.2 °F 57.6 °F 30.4 in Calm     88 % 0 in
00:10 57.7 °F 55.4 °F 30.3 in SW 1 mph 2 mph 92 % 0 in
00:12 61 °F 57.7 °F 30.4 in SW 1.2 mph   89 % 0 in
00:17 61 °F 57.7 °F 30.4 in SW 1.6 mph 1.6 mph 89 % 0 in
00:20 57.7 °F 55.4 °F 30.3 in SW 1 mph 2 mph 92 % 0 in
00:30 58.3 °F 56.3 °F 30.3 in Calm   1 mph 93 % 0 in
00:40 58.1 °F 56.1 °F 30.3 in Calm     93 % 0 in
00:50 58.1 °F 56.1 °F 30.3 in Calm     93 % 0 in
01:00 58.1 °F 56.1 °F 30.3 in Calm     93 % 0 in
01:10 57.7 °F 55.8 °F 30.3 in Calm     93 % 0 in
01:20 57.7 °F 55.8 °F 30.3 in Calm     93 % 0 in
01:30 57.6 °F 55.6 °F 30.3 in Calm     93 % 0 in
01:40 57.2 °F 55.2 °F 30.3 in Calm     93 % 0 in
01:50 57 °F 55 °F 30.3 in Calm     93 % 0 in
02:00 57 °F 55 °F 30.3 in Calm     93 % 0 in
02:10 56.7 °F 54.7 °F 30.3 in ESE 1 mph 2 mph 93 % 0 in
02:20 56.5 °F 54.5 °F 30.3 in Calm     93 % 0 in
02:30 56.3 °F 54.3 °F 30.3 in Calm   1 mph 93 % 0 in
02:40 55.9 °F 54 °F 30.3 in NNW 1 mph 2 mph 93 % 0 in
02:50 55.8 °F 53.4 °F 30.3 in Calm   1 mph 92 % 0 in
03:00 55.8 °F 53.4 °F 30.3 in Calm   2 mph 92 % 0 in
03:10 55.8 °F 53.8 °F 30.3 in Calm     93 % 0 in
03:20 55.4 °F 53.1 °F 30.3 in Calm   2 mph 92 % 0 in
03:30 55.4 °F 53.4 °F 30.3 in Calm   1 mph 93 % 0 in
03:40 55.6 °F 53.6 °F 30.3 in Calm     93 % 0 in
03:50 55.9 °F 54 °F 30.3 in Calm     93 % 0 in
04:00 56.3 °F 54.7 °F 30.3 in Calm     94 % 0 in
04:10 56.7 °F 55 °F 30.3 in Calm     94 % 0 in
04:20 56.8 °F 55 °F 30.3 in Calm     94 % 0 in
04:30 57.2 °F 55.2 °F 30.3 in Calm     93 % 0 in
04:40 57.9 °F 56.1 °F 30.3 in Calm     94 % 0 in
04:50 59.2 °F 57.2 °F 30.3 in WNW 1 mph 1 mph 93 % 0 in
05:00 60.1 °F 57.7 °F 30.3 in Calm     92 % 0 in
05:10 60.3 °F 57.4 °F 30.3 in Calm   2 mph 90 % 0 in
05:20 61.2 °F 57.6 °F 30.3 in Calm   1 mph 88 % 0 in
10:30 61.9 °F 57.4 °F 30.3 in SW 2.3 mph 2.3 mph 85 % 0 in
10:35 62.1 °F 57.6 °F 30.3 in SW 2.3 mph   85 % 0 in
10:40 62.8 °F 57.9 °F 30.3 in South 2.2 mph 2.2 mph 84 % 0 in
10:45 63.3 °F 58.1 °F 30.3 in WSW 2.6 mph 2.6 mph 83 % 0 in
10:50 63.1 °F 57.6 °F 30.3 in SW 2.6 mph 2.6 mph 82 % 0 in
10:55 64 °F 58.1 °F 30.3 in SSW 2.3 mph 2.3 mph 81 % 0 in
11:00 65.1 °F 58.8 °F 30.3 in ESE 2.4 mph 2.4 mph 80 % 0 in
11:05 65.1 °F 58.1 °F 30.3 in ESE 2.3 mph 2.3 mph 78 % 0 in
11:10 65.5 °F 58.5 °F 30.3 in NE 2.3 mph 2.3 mph 78 % 0 in
11:15 66 °F 59 °F 30.3 in ENE 2.3 mph 2.3 mph 78 % 0 in
11:20 66.7 °F 58.8 °F 30.3 in ENE 1.4 mph 1.4 mph 76 % 0 in
11:25 66.9 °F 59.2 °F 30.3 in ENE 2.6 mph 2.6 mph 76 % 0 in
11:30 66.7 °F 58.6 °F 30.3 in NE 2.3 mph 2.3 mph 75 % 0 in
11:35 66.9 °F 58.6 °F 30.3 in ENE 3.5 mph 3.5 mph 75 % 0 in
11:40 67.6 °F 59.7 °F 30.3 in ENE 2.3 mph 2.3 mph 76 % 0 in
11:45 67.6 °F 59.4 °F 30.3 in NNE 3.5 mph 3.5 mph 75 % 0 in
11:50 67.5 °F 59.4 °F 30.3 in NNE 1.2 mph 1.2 mph 75 % 0 in
11:55 67.5 °F 58.8 °F 30.3 in NNE 4.6 mph 4.6 mph 74 % 0 in
12:00 67.8 °F 58.8 °F 30.3 in East 4.7 mph 4.7 mph 73 % 0 in
12:05 67.8 °F 58.5 °F 30.3 in NNE 4.6 mph 4.6 mph 72 % 0 in
12:10 68.2 °F 57.9 °F 30.3 in ENE 2.4 mph 2.4 mph 70 % 0 in
12:15 68.5 °F 57.9 °F 30.3 in NE 2.4 mph 2.4 mph 69 % 0 in
12:20 68.9 °F 58.6 °F 30.3 in East 4.3 mph 4.3 mph 70 % 0 in
12:25 69.1 °F 58.5 °F 30.3 in East 3.5 mph 3.5 mph 69 % 0 in
12:30 69.3 °F 57.7 °F 30.3 in NNE 4.6 mph 4.6 mph 67 % 0 in
12:35 70 °F 59.4 °F 30.3 in ENE 2.4 mph 2.4 mph 69 % 0 in
12:40 70.2 °F 58.6 °F 30.3 in ENE 2.4 mph 2.4 mph 67 % 0 in
12:45 70.5 °F 59.4 °F 30.3 in East 2.3 mph 2.3 mph 68 % 0 in
12:50 71.1 °F 59.5 °F 30.3 in ENE 3.5 mph 3.5 mph 67 % 0 in
12:55 70.9 °F 59.4 °F 30.3 in East 3.5 mph 3.5 mph 67 % 0 in
12:56 71.1 °F 59.5 °F 30.3 in East 2.3 mph 2.3 mph 67 % 0 in
13:01 71.4 °F 59.5 °F 30.3 in NNE 2.3 mph 2.3 mph 66 % 0 in
13:06 71.8 °F 59.4 °F 30.3 in NNE 2.9 mph 2.9 mph 65 % 0 in
13:11 72.1 °F 59.7 °F 30.3 in North 2.3 mph   65 % 0 in
13:16 72.3 °F 59.5 °F 30.3 in ENE 2.6 mph 2.6 mph 64 % 0 in
13:21 72.7 °F 59.4 °F 30.3 in East 1.2 mph 1.6 mph 63 % 0 in
13:26 73 °F 59.2 °F 30.2 in SE 2.3 mph 2.3 mph 62 % 0 in
13:31 73.6 °F 60.3 °F 30.2 in NW 4 mph 4 mph 63 % 0 in
13:36 73.9 °F 59.5 °F 30.2 in SSE 3.5 mph 3.5 mph 61 % 0 in
13:41 74.7 °F 60.3 °F 30.2 in North 3.5 mph 3.5 mph 61 % 0 in
13:46 75.2 °F 59.9 °F 30.2 in NNW 3.5 mph 3.5 mph 59 % 0 in
13:51 74.8 °F 59.5 °F 30.2 in West 4.3 mph 4.3 mph 59 % 0 in
13:56 75 °F 59.2 °F 30.2 in WNW 3.5 mph 3.5 mph 58 % 0 in
14:01 75.4 °F 57.6 °F 30.2 in WNW 2.3 mph 2.3 mph 54 % 0 in
14:06 75.6 °F 57.7 °F 30.2 in WSW 3.6 mph 3.6 mph 54 % 0 in
14:11 76.3 °F 58.8 °F 30.2 in West 2.6 mph 2.6 mph 55 % 0 in
14:16 76.5 °F 58.6 °F 30.2 in West 4.6 mph 4.6 mph 54 % 0 in
14:21 76.5 °F 58.1 °F 30.2 in West 5.8 mph 5.8 mph 53 % 0 in
14:26 76.8 °F 58.5 °F 30.2 in SW 2.6 mph 2.6 mph 53 % 0 in
14:31 76.3 °F 57.4 °F 30.2 in West 3.5 mph 3.5 mph 52 % 0 in
14:36 75.9 °F 55.9 °F 30.2 in SW 5.8 mph 5.8 mph 50 % 0 in
14:41 75.7 °F 55.8 °F 30.2 in WSW 8.1 mph 8.1 mph 50 % 0 in
14:46 75.6 °F 55 °F 30.2 in SW 5.8 mph 5.8 mph 49 % 0 in
14:51 75.4 °F 54.3 °F 30.2 in WNW 6.9 mph 6.9 mph 48 % 0 in
14:56 75.9 °F 55.4 °F 30.2 in North 2.3 mph 2.3 mph 49 % 0 in
15:01 76.1 °F 55.6 °F 30.2 in WSW 4.6 mph 4.6 mph 49 % 0 in
15:06 76.3 °F 55.8 °F 30.2 in WSW 4.9 mph 4.9 mph 49 % 0 in
15:11 76.5 °F 55.9 °F 30.2 in West 3.5 mph 3.5 mph 49 % 0 in
15:16 76.3 °F 55.8 °F 30.2 in West 3.5 mph 3.5 mph 49 % 0 in
15:21 76.1 °F 55 °F 30.2 in West 5.8 mph 5.8 mph 48 % 0 in
15:26 76.1 °F 55 °F 30.2 in SW 5.8 mph 5.8 mph 48 % 0 in
15:31 76.3 °F 55 °F 30.2 in WSW 4.6 mph 4.6 mph 48 % 0 in
15:36 76.5 °F 55.2 °F 30.2 in West 4.6 mph 4.6 mph 48 % 0 in
15:41 76.8 °F 55.6 °F 30.2 in West 8.1 mph 8.1 mph 48 % 0 in
15:46 76.6 °F 54.9 °F 30.2 in WSW 3.8 mph 3.8 mph 47 % 0 in
15:51 76.5 °F 54.7 °F 30.2 in West 8.1 mph 8.1 mph 47 % 0 in
15:56 76.3 °F 54 °F 30.2 in West 9.2 mph 9.2 mph 46 % 0 in
16:01 76.3 °F 54 °F 30.2 in WSW 4.9 mph 4.9 mph 46 % 0 in
16:06 76.3 °F 54 °F 30.2 in WSW 6.9 mph 6.9 mph 46 % 0 in
16:11 76.3 °F 54 °F 30.2 in WSW 5.8 mph 5.8 mph 46 % 0 in
16:16 76.3 °F 54 °F 30.2 in WNW 3.5 mph 3.5 mph 46 % 0 in
16:21 76.3 °F 54 °F 30.2 in SW 2.3 mph 2.3 mph 46 % 0 in
16:26 76.5 °F 54.1 °F 30.2 in West 4.6 mph 4.6 mph 46 % 0 in
16:31 76.3 °F 54 °F 30.2 in WSW 6.9 mph 6.9 mph 46 % 0 in
16:36 76.1 °F 53.2 °F 30.2 in WSW 5.8 mph 5.8 mph 45 % 0 in
16:41 75.9 °F 53.1 °F 30.2 in WSW 4.6 mph 4.6 mph 45 % 0 in
16:46 76.3 °F 53.4 °F 30.2 in West 3.5 mph 3.5 mph 45 % 0 in
16:51 76.3 °F 53.4 °F 30.2 in SW 3.8 mph 3.8 mph 45 % 0 in
16:56 76.1 °F 53.2 °F 30.2 in WNW 5.4 mph 5.4 mph 45 % 0 in
17:01 76.3 °F 53.4 °F 30.2 in WSW 3.5 mph 3.5 mph 45 % 0 in
17:06 76.1 °F 53.2 °F 30.2 in WSW 3.8 mph 3.8 mph 45 % 0 in
17:11 76.1 °F 53.2 °F 30.2 in WSW 4.3 mph 4.3 mph 45 % 0 in
17:16 75.9 °F 52.3 °F 30.2 in SW 4.9 mph 4.9 mph 44 % 0 in
17:21 75.9 °F 53.1 °F 30.2 in WSW 6 mph 6 mph 45 % 0 in
17:26 75.7 °F 52.3 °F 30.2 in WSW 5.8 mph 5.8 mph 44 % 0 in
17:31 75.9 °F 52.3 °F 30.2 in WSW 2.3 mph 2.3 mph 44 % 0 in
17:36 75.7 °F 52.3 °F 30.2 in SW 4.6 mph 4.6 mph 44 % 0 in
17:41 75.6 °F 52.2 °F 30.2 in SW 6.9 mph 6.9 mph 44 % 0 in
17:46 75.6 °F 52.2 °F 30.2 in West 2.3 mph 2.3 mph 44 % 0 in
17:51 75.2 °F 51.8 °F 30.2 in SW 3.5 mph 3.5 mph 44 % 0 in
17:56 74.3 °F 51.1 °F 30.2 in ENE 2.4 mph 2.4 mph 44 % 0 in
17:58 74.1 °F 50.7 °F 30.2 in East 3.5 mph 3.5 mph 44 % 0 in
18:03 72.5 °F 52.2 °F 30.2 in ENE 4.6 mph 4.6 mph 49 % 0 in
18:08 71.8 °F 53.2 °F 30.2 in NE 4.6 mph 4.6 mph 52 % 0 in
18:13 70.9 °F 54.3 °F 30.2 in East 6 mph 6 mph 56 % 0 in
18:18 70.2 °F 55.6 °F 30.2 in ESE 3.5 mph 3.5 mph 60 % 0 in
18:23 69.6 °F 55.6 °F 30.2 in East 6.9 mph 6.9 mph 61 % 0 in
18:28 69.3 °F 56.1 °F 30.2 in NE 5.9 mph 5.9 mph 63 % 0 in
18:33 68.9 °F 56.1 °F 30.2 in East 8.1 mph 8.1 mph 64 % 0 in
18:38 68.5 °F 56.7 °F 30.2 in ENE 5.8 mph 5.8 mph 66 % 0 in
18:43 68.2 °F 56.8 °F 30.2 in ESE 6.2 mph 6.2 mph 67 % 0 in
18:48 68 °F 56.7 °F 30.2 in ESE 4.9 mph 4.9 mph 67 % 0 in
18:53 67.6 °F 57 °F 30.2 in ENE 7.8 mph 7.8 mph 69 % 0 in
18:58 67.3 °F 57.6 °F 30.2 in East 5.8 mph 5.8 mph 71 % 0 in
19:08 66.7 °F 57.4 °F 30.2 in ENE 4.6 mph 4.6 mph 72 % 0 in
19:13 66.6 °F 57.4 °F 30.2 in ENE 3.5 mph 3.5 mph 72 % 0 in
19:18 66.4 °F 57.6 °F 30.2 in East 5.8 mph 5.8 mph 73 % 0 in
19:23 66.2 °F 57.7 °F 30.2 in ENE 6.2 mph 6.2 mph 74 % 0 in
19:28 66 °F 57.9 °F 30.2 in East 5.8 mph 5.8 mph 75 % 0 in
19:33 66 °F 58.3 °F 30.2 in ENE 4.6 mph 4.6 mph 76 % 0 in
19:38 65.8 °F 57.7 °F 30.2 in ENE 3.3 mph 3.3 mph 75 % 0 in
19:43 65.7 °F 57.9 °F 30.2 in NNE 2.6 mph 2.6 mph 76 % 0 in
19:48 65.7 °F 57.9 °F 30.2 in ENE 4.6 mph 4.6 mph 76 % 0 in
19:53 65.5 °F 58.1 °F 30.2 in NNE 2.3 mph 2.3 mph 77 % 0 in
19:58 65.3 °F 57.9 °F 30.2 in ENE 3.5 mph 3.5 mph 77 % 0 in
20:00 61.3 °F 57.4 °F 30.2 in Calm     87 % 0 in
20:03 65.1 °F 57.7 °F 30.2 in NNE 4.6 mph 4.6 mph 77 % 0 in
20:08 65.3 °F 58.3 °F 30.2 in NNE 4.6 mph 4.6 mph 78 % 0 in
20:10 61.5 °F 57.4 °F 30.2 in WSW 1 mph 2 mph 86 % 0 in
20:13 65.3 °F 58.3 °F 30.2 in ENE 5.8 mph 5.8 mph 78 % 0 in
20:18 65.1 °F 58.1 °F 30.2 in NNE 4.6 mph 4.6 mph 78 % 0 in
20:20 61.5 °F 57.4 °F 30.2 in Calm   1 mph 86 % 0 in
20:23 65.1 °F 58.1 °F 30.3 in ENE 4.6 mph 4.6 mph 78 % 0 in
20:28 64.9 °F 58.3 °F 30.3 in ENE 4.6 mph 4.6 mph 79 % 0 in
20:30 61.3 °F 57 °F 30.2 in WSW 2 mph 2 mph 86 % 0 in
20:33 64.8 °F 58.1 °F 30.3 in ENE 5.4 mph 5.4 mph 79 % 0 in
20:38 64.6 °F 57.9 °F 30.3 in ENE 4.6 mph 4.6 mph 79 % 0 in
20:40 61.2 °F 56.8 °F 30.2 in WSW 1 mph 2 mph 86 % 0 in
20:43 64.6 °F 57.9 °F 30.3 in ENE 3.5 mph 3.5 mph 79 % 0 in
20:48 64.4 °F 58.1 °F 30.3 in East 2.3 mph 2.3 mph 80 % 0 in
20:53 64.4 °F 57.7 °F 30.3 in NNE 2.4 mph 2.4 mph 79 % 0 in
20:58 64 °F 57.7 °F 30.3 in NNW 1.4 mph 1.4 mph 80 % 0 in
21:00 61.3 °F 56.5 °F 30.2 in West 1 mph 3 mph 84 % 0 in
21:08 64 °F 57.7 °F 30.3 in SW 2.3 mph 2.3 mph 80 % 0 in
21:10 61.7 °F 56.5 °F 30.2 in Calm   3 mph 83 % 0 in
21:13 63.7 °F 57.4 °F 30.3 in SW 2.3 mph 2.3 mph 80 % 0 in
21:18 63.5 °F 57.2 °F 30.3 in WSW 2.4 mph   80 % 0 in
21:20 61.5 °F 55.6 °F 30.2 in WSW 3 mph 5 mph 81 % 0 in
21:23 63.3 °F 57.4 °F 30.3 in SSE 3.5 mph 3.5 mph 81 % 0 in
21:28 63.1 °F 56.5 °F 30.3 in SW 3.5 mph 3.5 mph 79 % 0 in
21:30 61.2 °F 54.7 °F 30.2 in West 5 mph 6 mph 79 % 0 in
21:33 62.8 °F 56.5 °F 30.3 in SW 2.3 mph 2.3 mph 80 % 0 in
21:38 62.4 °F 56.5 °F 30.3 in SW 2.3 mph 2.3 mph 81 % 0 in
21:40 60.8 °F 54.1 °F 30.2 in WSW 3 mph 5 mph 79 % 0 in
21:43 62.2 °F 55.9 °F 30.3 in SW 2.3 mph 2.3 mph 80 % 0 in
21:48 62.2 °F 56.3 °F 30.3 in WSW 1.6 mph   81 % 0 in
21:50 60.8 °F 53.4 °F 30.3 in West 3 mph 4 mph 77 % 0 in
21:53 62.2 °F 56.3 °F 30.3 in SW 2.4 mph 2.4 mph 81 % 0 in
21:58 62.1 °F 56.5 °F 30.3 in SW 2.3 mph 2.3 mph 82 % 0 in
22:00 60.4 °F 52.9 °F 30.2 in West 2 mph 3 mph 76 % 0 in
22:03 62.1 °F 56.8 °F 30.3 in Calm     83 % 0 in
22:08 62.1 °F 56.8 °F 30.3 in Calm     83 % 0 in
22:10 60.1 °F 52.2 °F 30.2 in Calm   3 mph 75 % 0 in
22:13 62.2 °F 57.4 °F 30.3 in Calm     84 % 0 in
22:18 62.2 °F 57.4 °F 30.3 in Calm     84 % 0 in
22:20 59.7 °F 51.8 °F 30.2 in WSW 1 mph 1 mph 75 % 0 in
22:23 62.2 °F 57.4 °F 30.3 in SW 2 mph   84 % 0 in
22:28 62.1 °F 56.8 °F 30.3 in WSW 2.3 mph 2.3 mph 83 % 0 in
22:30 59.4 °F 51.4 °F 30.2 in Calm   2 mph 75 % 0 in
22:33 62.1 °F 56.8 °F 30.3 in WSW 1.2 mph 1.4 mph 83 % 0 in
22:38 62.1 °F 56.8 °F 30.3 in WSW 2.3 mph 2.3 mph 83 % 0 in
22:40 59 °F 51.1 °F 30.2 in Calm   1 mph 75 % 0 in
22:43 62.1 °F 56.8 °F 30.3 in WSW 2.3 mph 2.3 mph 83 % 0 in
22:48 62.2 °F 57.4 °F 30.3 in West 2.3 mph   84 % 0 in
22:50 58.8 °F 50.9 °F 30.2 in Calm   4 mph 75 % 0 in
22:53 62.6 °F 57 °F 30.3 in West 3.5 mph 3.5 mph 82 % 0 in
22:58 62.8 °F 57.6 °F 30.3 in West 1.2 mph 1.2 mph 83 % 0 in
23:00 57.9 °F 50.4 °F 30.2 in West 1 mph 3 mph 76 % 0 in
23:03 62.6 °F 57.7 °F 30.3 in Calm     84 % 0 in
23:08 62.6 °F 57.7 °F 30.3 in NW 1.2 mph   84 % 0 in
23:10 57.9 °F 50.4 °F 30.2 in NW 2 mph 4 mph 76 % 0 in
23:13 62.6 °F 57.7 °F 30.3 in NNW 1.2 mph   84 % 0 in
23:18 62.8 °F 57.9 °F 30.3 in WNW 2.3 mph 2.3 mph 84 % 0 in
23:20 58.3 °F 50.7 °F 30.2 in NNE 2 mph 3 mph 76 % 0 in
23:23 62.6 °F 57.7 °F 30.2 in SW 2.3 mph 2.3 mph 84 % 0 in
23:28 62.4 °F 57.6 °F 30.2 in Calm     84 % 0 in
23:30 57.9 °F 50.4 °F 30.2 in North 1 mph 2 mph 76 % 0 in
23:33 62.8 °F 57.9 °F 30.2 in SW 4.6 mph 4.6 mph 84 % 0 in
23:38 62.4 °F 57.6 °F 30.3 in SW 1.2 mph 1.2 mph 84 % 0 in
23:40 57.6 °F 50.4 °F 30.2 in NNW 2 mph 3 mph 77 % 0 in
23:43 62.1 °F 57.2 °F 30.3 in SW 1.2 mph 1.2 mph 84 % 0 in
23:48 62.1 °F 57.6 °F 30.3 in Calm     85 % 0 in
23:50 56.8 °F 49.6 °F 30.2 in Calm   2 mph 77 % 0 in
23:53 61.9 °F 57.4 °F 30.2 in Calm     85 % 0 in
23:58 61.9 °F 57.4 °F 30.2 in SW 1.2 mph   85 % 0 in
Meteo Sesrovires
Elogis d' Weather Underground - 3.75 mb

Guio original per  Jim McMurry - jmcmurry@mwt.net Adaptat per a la plantilla per  Wim van der Kuil - Leuven-Template.eu

Trobareu la nostra informacio del temps tambe a:

Weather Underground

AWEKAS